createdAt,value
2023-05-16T00:05:17.828Z,25.6
2023-05-16T00:15:17.692Z,25.3
2023-05-16T00:25:18.251Z,27.8
2023-05-16T00:35:18.832Z,25.5
2023-05-16T00:45:17.799Z,25.4
2023-05-16T00:55:17.702Z,25.9
2023-05-16T01:05:17.910Z,25.8
2023-05-16T01:15:18.122Z,25.7
2023-05-16T01:25:18.389Z,25.4
2023-05-16T01:35:17.905Z,25.8
2023-05-16T01:45:18.067Z,27.9
2023-05-16T01:55:18.368Z,27.6
2023-05-16T02:05:17.866Z,25.3
2023-05-16T02:15:17.890Z,25.8
2023-05-16T02:25:18.212Z,25.7
2023-05-16T02:35:17.385Z,26
2023-05-16T02:45:16.750Z,25.7
2023-05-16T02:55:22.009Z,25.3
2023-05-16T03:05:07.905Z,25.7
2023-05-16T03:15:07.713Z,25.8
2023-05-16T03:25:07.325Z,25.7
2023-05-16T03:35:07.545Z,25.8
2023-05-16T03:45:07.737Z,25.8
2023-05-16T03:55:07.304Z,25.5
2023-05-16T04:05:07.787Z,25.4
2023-05-16T04:15:09.977Z,25.6
2023-05-16T04:25:11.892Z,25.6
2023-05-16T04:35:12.809Z,25.6
2023-05-16T04:45:14.780Z,27.6
2023-05-16T04:55:16.260Z,25.4
2023-05-16T05:05:15.957Z,28.1
2023-05-16T05:15:15.922Z,25.7
2023-05-16T05:25:15.552Z,25.8
2023-05-16T05:35:15.013Z,25.6
2023-05-16T05:45:15.459Z,25.3
2023-05-16T05:55:15.596Z,28.1
2023-05-16T06:05:16.391Z,25.4
2023-05-16T06:15:16.460Z,25.8
2023-05-16T06:25:16.466Z,25.6
2023-05-16T06:35:15.927Z,25.4
2023-05-16T06:45:15.110Z,25.8
2023-05-16T06:55:15.277Z,25.2
2023-05-16T07:05:14.748Z,25.6
2023-05-16T07:15:14.581Z,25.2
2023-05-16T07:25:14.592Z,25.1
2023-05-16T07:35:14.926Z,25.5
2023-05-16T07:45:14.043Z,25.3
2023-05-16T07:55:14.418Z,24.9
2023-05-16T08:05:14.787Z,26
2023-05-16T08:15:16.663Z,26.1
2023-05-16T08:25:20.614Z,28.6
2023-05-16T08:35:24.909Z,30
2023-05-16T08:45:34.711Z,32.7
2023-05-16T08:55:48.401Z,37.1
2023-05-16T09:05:13.362Z,40
2023-05-16T09:15:22.748Z,32.8
2023-05-16T09:25:30.037Z,31.4
2023-05-16T09:35:43.717Z,30.1
2023-05-16T09:45:34.484Z,31.7
2023-05-16T09:55:44.828Z,39.1
2023-05-16T10:05:55.121Z,34
2023-05-16T10:16:11.258Z,42.3
2023-05-16T10:26:23.446Z,35.6
2023-05-16T10:36:36.868Z,36.1
2023-05-16T10:46:50.671Z,36.8
2023-05-16T10:57:06.292Z,37.2
2023-05-16T11:07:18.388Z,26.7
2023-05-16T11:17:29.062Z,35.3
2023-05-16T11:27:36.671Z,29.7
2023-05-16T11:37:44.824Z,36.4
2023-05-16T11:47:53.696Z,32.8
2023-05-16T11:58:07.656Z,37.7
2023-05-16T12:08:25.600Z,38.4
2023-05-16T12:18:43.304Z,36.1
2023-05-16T12:28:56.798Z,36.4
2023-05-16T12:39:00.681Z,26.4
2023-05-16T12:49:01.036Z,29.3
2023-05-16T12:59:02.294Z,28.4
2023-05-16T13:09:03.152Z,26.3
2023-05-16T13:19:05.348Z,28.3
2023-05-16T13:29:06.359Z,28.9
2023-05-16T13:39:07.976Z,26
2023-05-16T13:49:09.415Z,28.7
2023-05-16T14:09:11.486Z,25.9
2023-05-16T14:19:11.302Z,26.4
2023-05-16T14:29:11.327Z,26.6
2023-05-16T14:39:10.894Z,26.1
2023-05-16T14:49:11.120Z,28.6
2023-05-16T14:59:11.889Z,28.6
2023-05-16T15:05:09.291Z,25.3
2023-05-16T15:15:09.825Z,25.8
2023-05-16T15:25:09.641Z,26
2023-05-16T15:35:09.103Z,25.9
2023-05-16T15:45:08.553Z,25.9
2023-05-16T15:55:09.422Z,25.8
2023-05-16T16:05:10.168Z,25.9
2023-05-16T16:15:11.583Z,25.6
2023-05-16T16:25:12.580Z,26
2023-05-16T16:35:14.676Z,26
2023-05-16T16:45:16.686Z,25.8
2023-05-16T16:55:17.930Z,25.8
2023-05-16T17:05:17.783Z,28.1
2023-05-16T17:15:16.998Z,25.5
2023-05-16T17:25:17.410Z,25.4
2023-05-16T17:35:16.950Z,25.9
2023-05-16T17:45:16.693Z,25.8
2023-05-16T17:55:16.858Z,25.8
2023-05-16T18:05:16.218Z,25.6
2023-05-16T18:15:15.772Z,25.9
2023-05-16T18:25:15.414Z,27.9
2023-05-16T18:35:15.557Z,25.4
2023-05-16T18:45:15.392Z,25.4
2023-05-16T18:55:15.792Z,25.3
2023-05-16T19:05:15.998Z,25.4
2023-05-16T19:15:15.616Z,25.4
2023-05-16T19:25:15.053Z,25.3
2023-05-16T19:35:16.147Z,25.3
2023-05-16T19:45:16.103Z,25.3
2023-05-16T19:55:15.682Z,25.7
2023-05-16T20:05:15.587Z,25.6
2023-05-16T20:15:14.980Z,25.1
2023-05-16T20:25:14.752Z,27.4
2023-05-16T20:35:15.301Z,25.6
2023-05-16T20:45:15.325Z,25.9
2023-05-16T20:55:15.463Z,25.4
2023-05-16T21:05:20.108Z,28.2
2023-05-16T21:15:08.459Z,25.5
2023-05-16T21:25:09.178Z,28.4
2023-05-16T21:35:09.643Z,27.6
2023-05-16T21:45:13.208Z,28.1
2023-05-16T21:55:10.296Z,26
2023-05-16T22:05:11.153Z,25.8
2023-05-16T22:15:12.561Z,28.1
2023-05-16T22:25:14.644Z,25.4
2023-05-16T22:35:17.100Z,27.8
2023-05-16T22:45:18.118Z,25.3
2023-05-16T22:55:20.317Z,25.6
2023-05-16T23:05:20.196Z,25.8
2023-05-16T23:15:20.293Z,28.3
2023-05-16T23:25:20.143Z,25.6
2023-05-16T23:35:20.266Z,25.7
2023-05-16T23:45:20.092Z,25.6
2023-05-16T23:55:20.213Z,25.4
